Terminal Aerodrome Forecast
Issued by NWS Cleveland, OH

Home | Current Version | Previous Version | Text Only | Print | Product List | Glossary On
Versions: 1 2 3 4 5 6 7 8 9 10 11 12 13 14 15 16 17 18 19 20 21 22 23 24
277
FTUS41 KCLE 111740
TAFERI
TAF
KERI 111740Z 1118/1218 29014G22KT P6SM OVC035
      TEMPO 1118/1120 3SM -SHSN OVC025
     FM112200 27010KT P6SM BKN035
     FM120400 23008KT P6SM BKN040
     FM121700 23015G25KT 2SM -SHSN OVC035=

USA.gov is the U.S. government's official web portal to all federal, state and local government web resources and services.